| time (UTC) | temp F | wind direction | speed MPH | gust MPH | rain 1hr in | rain 24hr in | rain mn in | humidity % | barometer mb |
| 20260510000103 | 61 | 116 | 2.0 | 4.0 | 0.00 | 0.03 | 0.03 | 72 | 1008.9 |
| 20260509234604 | 62 | 114 | 2.0 | 3.0 | 0.00 | 0.03 | 0.03 | 70 | 1009.0 |
| 20260509233056 | 62 | 106 | 2.0 | 4.0 | 0.00 | 0.03 | 0.03 | 69 | 1009.0 |
| 20260509231556 | 63 | 96 | 2.0 | 3.0 | 0.00 | 0.03 | 0.03 | 69 | 1009.1 |
| 20260509230059 | 63 | 113 | 2.0 | 4.0 | 0.00 | 0.03 | 0.03 | 69 | 1009.1 |
| 20260509224553 | 63 | 80 | 2.0 | 4.0 | 0.00 | 0.03 | 0.03 | 68 | 1009.1 |
| 20260509223052 | 63 | 47 | 1.0 | 4.0 | 0.00 | 0.03 | 0.03 | 68 | 1009.2 |
| 20260509221550 | 64 | 105 | 2.0 | 4.0 | 0.00 | 0.03 | 0.03 | 67 | 1009.0 |
| 20260509220055 | 64 | 72 | 3.0 | 5.0 | 0.00 | 0.03 | 0.03 | 67 | 1009.0 |
| 20260509214554 | 64 | 112 | 3.0 | 7.0 | 0.00 | 0.03 | 0.03 | 68 | 1009.1 |
| 20260509213102 | 62 | 71 | 3.0 | 5.0 | 0.00 | 0.03 | 0.03 | 70 | 1009.3 |
| 20260509211602 | 62 | 65 | 2.0 | 4.0 | 0.00 | 0.03 | 0.03 | 70 | 1009.4 |
| 20260509210058 | 62 | 60 | 2.0 | 5.0 | 0.00 | 0.03 | 0.03 | 69 | 1009.3 |
| 20260509204555 | 62 | 75 | 3.0 | 4.0 | 0.00 | 0.03 | 0.03 | 69 | 1009.3 |
| 20260509203059 | 61 | 90 | 3.0 | 4.0 | 0.00 | 0.03 | 0.03 | 69 | 1009.2 |
| 20260509201559 | 61 | 62 | 2.0 | 5.0 | 0.00 | 0.03 | 0.03 | 70 | 1009.3 |
| 20260509194557 | 62 | 98 | 1.0 | 4.0 | 0.00 | 0.03 | 0.03 | 68 | 1009.6 |
| 20260509193055 | 62 | 90 | 3.0 | 6.0 | 0.01 | 0.03 | 0.03 | 67 | 1009.5 |
| 20260509191553 | 62 | 63 | 0.0 | 6.0 | 0.01 | 0.03 | 0.03 | 66 | 1009.7 |
| 20260509190055 | 62 | 52 | 1.0 | 6.0 | 0.01 | 0.03 | 0.03 | 68 | 1009.9 |
| 20260509184552 | 62 | 115 | 5.0 | 8.0 | 0.01 | 0.03 | 0.03 | 67 | 1009.8 |
| 20260509183133 | 61 | 118 | 2.0 | 4.0 | 0.00 | 0.02 | 0.02 | 68 | 1010.0 |
| 20260509181608 | 60 | 0 | 1.0 | 3.0 | 0.00 | 0.02 | 0.02 | 72 | 1010.3 |
| 20260509180058 | 60 | 123 | 3.0 | 4.0 | 0.00 | 0.02 | 0.02 | 73 | 1010.7 |
| 20260509174554 | 59 | 0 | 1.0 | 3.0 | 0.00 | 0.02 | 0.02 | 74 | 1011.2 |
| 20260509173102 | 58 | 65 | 1.0 | 2.0 | 0.00 | 0.02 | 0.02 | 71 | 1011.2 |
| 20260509171558 | 58 | 119 | 1.0 | 7.0 | 0.00 | 0.02 | 0.02 | 72 | 1011.0 |
| 20260509170058 | 58 | 118 | 1.0 | 3.0 | 0.00 | 0.02 | 0.02 | 73 | 1011.1 |
| 20260509164600 | 58 | 0 | 0.0 | 2.0 | 0.00 | 0.02 | 0.02 | 72 | 1011.2 |
| 20260509163100 | 58 | 0 | 1.0 | 3.0 | 0.00 | 0.02 | 0.02 | 73 | 1011.3 |
| 20260509161555 | 58 | 47 | 1.0 | 2.0 | 0.00 | 0.02 | 0.02 | 71 | 1011.4 |
| 20260509160100 | 59 | 0 | 0.0 | 4.0 | 0.00 | 0.02 | 0.02 | 70 | 1011.1 |
| 20260509154558 | 58 | 0 | 1.0 | 4.0 | 0.00 | 0.02 | 0.02 | 70 | 1011.3 |
| 20260509153053 | 58 | 164 | 1.0 | 4.0 | 0.01 | 0.02 | 0.02 | 74 | 1011.5 |
| 20260509151553 | 56 | 0 | 0.0 | 3.0 | 0.01 | 0.02 | 0.02 | 79 | 1011.7 |
| 20260509150054 | 53 | 67 | 2.0 | 3.0 | 0.01 | 0.02 | 0.02 | 85 | 1011.1 |
| 20260509144556 | 53 | 123 | 0.0 | 4.0 | 0.02 | 0.02 | 0.02 | 83 | 1011.4 |
| 20260509143054 | 53 | 144 | 0.0 | 3.0 | 0.01 | 0.01 | 0.01 | 83 | 1011.7 |
| 20260509141600 | 53 | 0 | 1.0 | 4.0 | 0.01 | 0.01 | 0.01 | 82 | 1011.5 |
| 20260509134601 | 55 | 129 | 0.0 | 3.0 | 0.00 | 0.00 | 0.00 | 75 | 1011.6 |
| 20260509133107 | 56 | 88 | 0.0 | 3.0 | 0.00 | 0.00 | 0.00 | 72 | 1010.9 |
| 20260509131557 | 56 | 184 | 0.0 | 2.0 | 0.00 | 0.00 | 0.00 | 68 | 1011.2 |
| 20260509130058 | 55 | 0 | 0.0 | 0.0 | 0.00 | 0.00 | 0.00 | 68 | 1011.2 |
| 20260509124556 | 55 | 0 | 0.0 | 2.0 | 0.00 | 0.00 | 0.00 | 67 | 1011.1 |
| 20260509123102 | 55 | 142 | 2.0 | 4.0 | 0.00 | 0.00 | 0.00 | 68 | 1011.1 |
| 20260509121553 | 54 | 194 | 0.0 | 3.0 | 0.00 | 0.00 | 0.00 | 68 | 1011.1 |
| 20260509120056 | 53 | 0 | 0.0 | 3.0 | 0.00 | 0.00 | 0.00 | 74 | 1011.1 |
| 20260509114559 | 53 | 0 | 0.0 | 0.0 | 0.00 | 0.00 | 0.00 | 78 | 1011.0 |
| 20260509113057 | 52 | 0 | 0.0 | 1.0 | 0.00 | 0.00 | 0.00 | 76 | 1010.9 |
| 20260509111558 | 52 | 0 | 0.0 | 0.0 | 0.00 | 0.00 | 0.00 | 75 | 1010.6 |
| 20260509110100 | 52 | 0 | 0.0 | 0.0 | 0.00 | 0.00 | 0.00 | 74 | 1010.6 |
| 20260509104558 | 52 | 0 | 0.0 | 0.0 | 0.00 | 0.00 | 0.00 | 71 | 1010.5 |
| 20260509103105 | 52 | 0 | 0.0 | 0.0 | 0.00 | 0.00 | 0.00 | 70 | 1010.6 |
| 20260509101602 | 52 | 0 | 0.0 | 0.0 | 0.00 | 0.00 | 0.00 | 70 | 1010.5 |
| 20260509094555 | 52 | 0 | 0.0 | 0.0 | 0.00 | 0.00 | 0.00 | 68 | 1010.3 |
| 20260509093059 | 53 | 0 | 0.0 | 2.0 | 0.00 | 0.00 | 0.00 | 68 | 1010.4 |
| 20260509091555 | 53 | 0 | 0.0 | 2.0 | 0.00 | 0.00 | 0.00 | 67 | 1010.4 |
| 20260509090056 | 52 | 0 | 0.0 | 0.0 | 0.00 | 0.00 | 0.00 | 67 | 1010.5 |
| 20260509084600 | 52 | 0 | 0.0 | 2.0 | 0.00 | 0.00 | 0.00 | 69 | 1010.7 |
| 20260509083054 | 53 | 0 | 0.0 | 4.0 | 0.00 | 0.00 | 0.00 | 68 | 1010.7 |
| 20260509081555 | 53 | 206 | 0.0 | 2.0 | 0.00 | 0.00 | 0.00 | 66 | 1010.8 |
| 20260509080056 | 53 | 205 | 0.0 | 1.0 | 0.00 | 0.00 | 0.00 | 67 | 1010.6 |
| 20260509074603 | 53 | 205 | 1.0 | 2.0 | 0.00 | 0.00 | 0.00 | 67 | 1010.7 |
| 20260509073109 | 53 | 210 | 1.0 | 4.0 | 0.00 | 0.00 | 0.00 | 66 | 1010.7 |
| 20260509071559 | 53 | 213 | 0.0 | 3.0 | 0.00 | 0.00 | 0.00 | 66 | 1010.8 |
| 20260509070055 | 52 | 240 | 0.0 | 2.0 | 0.00 | 0.00 | 0.00 | 68 | 1010.9 |
| 20260509063110 | 53 | 212 | 1.0 | 4.0 | 0.00 | 0.00 | 0.00 | 67 | 1011.1 |
| 20260509061601 | 54 | 215 | 2.0 | 11.0 | 0.00 | 0.00 | 0.00 | 66 | 1011.2 |
| 20260509060054 | 52 | 246 | 3.0 | 9.0 | 0.00 | 0.00 | 0.00 | 71 | 1011.0 |
| 20260509054600 | 50 | 105 | 0.0 | 2.0 | 0.00 | 0.00 | 0.00 | 77 | 1011.1 |
| 20260509053058 | 48 | 0 | 0.0 | 0.0 | 0.00 | 0.00 | 0.00 | 82 | 1011.4 |
| 20260509051600 | 47 | 0 | 0.0 | 0.0 | 0.00 | 0.00 | 0.00 | 83 | 1011.6 |
| 20260509050104 | 48 | 0 | 0.0 | 0.0 | 0.00 | 0.00 | 0.00 | 80 | 1011.7 |
| 20260509044557 | 47 | 0 | 0.0 | 0.0 | 0.00 | 0.00 | 0.00 | 81 | 1011.7 |
| 20260509043100 | 48 | 0 | 0.0 | 0.0 | 0.00 | 0.00 | 0.00 | 79 | 1011.7 |
| 20260509041604 | 49 | 0 | 0.0 | 0.0 | 0.00 | 0.00 | 0.00 | 78 | 1011.6 |
| 20260509040055 | 50 | 0 | 0.0 | 0.0 | 0.00 | 0.00 | 0.00 | 77 | 1011.8 |
| 20260509034601 | 50 | 0 | 0.0 | 0.0 | 0.00 | 0.00 | 0.00 | 76 | 1011.8 |
| 20260509033109 | 51 | 0 | 0.0 | 0.0 | 0.00 | 0.00 | 0.00 | 73 | 1011.9 |
| 20260509031603 | 53 | 0 | 0.0 | 0.0 | 0.00 | 0.00 | 0.00 | 71 | 1011.9 |
| 20260509030054 | 53 | 0 | 0.0 | 0.0 | 0.00 | 0.00 | 0.00 | 73 | 1012.0 |
| 20260509024553 | 53 | 0 | 0.0 | 0.0 | 0.00 | 0.00 | 0.00 | 72 | 1012.2 |
| 20260509023101 | 54 | 0 | 0.0 | 0.0 | 0.00 | 0.00 | 0.00 | 70 | 1012.2 |
| 20260509021554 | 54 | 0 | 0.0 | 0.0 | 0.00 | 0.00 | 0.00 | 69 | 1012.4 |
| 20260509020054 | 54 | 0 | 0.0 | 0.0 | 0.00 | 0.00 | 0.00 | 72 | 1012.2 |
| 20260509014553 | 56 | 0 | 0.0 | 4.0 | 0.00 | 0.00 | 0.00 | 62 | 1012.1 |
| 20260509013102 | 55 | 0 | 0.0 | 0.0 | 0.00 | 0.00 | 0.00 | 67 | 1012.1 |
| 20260509011556 | 56 | 0 | 0.0 | 0.0 | 0.00 | 0.00 | 0.00 | 63 | 1012.2 |
| 20260509010055 | 56 | 0 | 0.0 | 0.0 | 0.00 | 0.00 | 0.00 | 65 | 1012.1 |
| 20260509004619 | 59 | 182 | 1.0 | 4.0 | 0.00 | 0.00 | 0.00 | 52 | 1012.0 |
| 20260509003053 | 58 | 199 | 2.0 | 2.0 | 0.00 | 0.00 | 0.00 | 54 | 1011.8 |
| 20260509001554 | 59 | 204 | 2.0 | 3.0 | 0.00 | 0.00 | 0.00 | 51 | 1011.9 |